sensor_id;sensor_type;location;lat;lon;timestamp;P1;durP1;ratioP1;P2;durP2;ratioP2
20567;SDS011;10442;49.932;11.592;2022-07-23T00:02:00;6.70;;;6.13;;
20567;SDS011;10442;49.932;11.592;2022-07-23T00:04:28;9.40;;;6.13;;
20567;SDS011;10442;49.932;11.592;2022-07-23T00:06:55;6.85;;;6.35;;
20567;SDS011;10442;49.932;11.592;2022-07-23T00:09:22;6.50;;;5.85;;
20567;SDS011;10442;49.932;11.592;2022-07-23T00:11:50;5.35;;;4.95;;
20567;SDS011;10442;49.932;11.592;2022-07-23T00:14:17;7.15;;;6.55;;
20567;SDS011;10442;49.932;11.592;2022-07-23T00:16:45;6.20;;;5.50;;
20567;SDS011;10442;49.932;11.592;2022-07-23T00:19:12;6.47;;;6.03;;
20567;SDS011;10442;49.932;11.592;2022-07-23T00:21:40;6.88;;;6.10;;
20567;SDS011;10442;49.932;11.592;2022-07-23T00:24:07;5.85;;;4.93;;
20567;SDS011;10442;49.932;11.592;2022-07-23T00:26:34;6.30;;;5.70;;
20567;SDS011;10442;49.932;11.592;2022-07-23T00:29:02;6.38;;;5.85;;
20567;SDS011;10442;49.932;11.592;2022-07-23T00:31:30;6.70;;;6.10;;
20567;SDS011;10442;49.932;11.592;2022-07-23T00:33:58;5.93;;;5.28;;
20567;SDS011;10442;49.932;11.592;2022-07-23T00:36:28;8.45;;;7.43;;
20567;SDS011;10442;49.932;11.592;2022-07-23T00:38:57;5.80;;;5.35;;
20567;SDS011;10442;49.932;11.592;2022-07-23T00:41:25;5.35;;;4.95;;
20567;SDS011;10442;49.932;11.592;2022-07-23T00:43:52;5.75;;;5.25;;
20567;SDS011;10442;49.932;11.592;2022-07-23T00:46:20;7.10;;;6.43;;
20567;SDS011;10442;49.932;11.592;2022-07-23T00:48:48;6.88;;;6.28;;
20567;SDS011;10442;49.932;11.592;2022-07-23T00:51:16;6.82;;;6.28;;
20567;SDS011;10442;49.932;11.592;2022-07-23T00:53:44;6.88;;;6.25;;
20567;SDS011;10442;49.932;11.592;2022-07-23T00:56:12;7.30;;;6.70;;
20567;SDS011;10442;49.932;11.592;2022-07-23T00:58:40;6.72;;;6.18;;
20567;SDS011;10442;49.932;11.592;2022-07-23T01:01:10;7.35;;;6.75;;
20567;SDS011;10442;49.932;11.592;2022-07-23T01:03:38;11.43;;;8.60;;
20567;SDS011;10442;49.932;11.592;2022-07-23T01:06:06;12.85;;;7.60;;
20567;SDS011;10442;49.932;11.592;2022-07-23T01:08:34;6.78;;;6.07;;
20567;SDS011;10442;49.932;11.592;2022-07-23T01:11:02;6.65;;;6.05;;
20567;SDS011;10442;49.932;11.592;2022-07-23T01:13:29;6.95;;;6.35;;
20567;SDS011;10442;49.932;11.592;2022-07-23T01:15:57;6.93;;;6.32;;
20567;SDS011;10442;49.932;11.592;2022-07-23T01:18:25;7.30;;;6.65;;
20567;SDS011;10442;49.932;11.592;2022-07-23T01:20:52;10.27;;;6.22;;
20567;SDS011;10442;49.932;11.592;2022-07-23T01:23:20;7.97;;;7.22;;
20567;SDS011;10442;49.932;11.592;2022-07-23T01:25:52;7.22;;;6.63;;
20567;SDS011;10442;49.932;11.592;2022-07-23T01:28:23;6.13;;;5.53;;
20567;SDS011;10442;49.932;11.592;2022-07-23T01:30:50;7.55;;;5.82;;
20567;SDS011;10442;49.932;11.592;2022-07-23T01:33:18;6.78;;;6.28;;
20567;SDS011;10442;49.932;11.592;2022-07-23T01:35:46;7.45;;;6.32;;
20567;SDS011;10442;49.932;11.592;2022-07-23T01:38:19;6.35;;;5.95;;
20567;SDS011;10442;49.932;11.592;2022-07-23T01:40:46;5.82;;;5.43;;
20567;SDS011;10442;49.932;11.592;2022-07-23T01:43:21;6.75;;;5.95;;
20567;SDS011;10442;49.932;11.592;2022-07-23T01:45:51;6.32;;;5.82;;
20567;SDS011;10442;49.932;11.592;2022-07-23T01:48:19;6.35;;;5.95;;
20567;SDS011;10442;49.932;11.592;2022-07-23T01:51:07;7.03;;;6.35;;
20567;SDS011;10442;49.932;11.592;2022-07-23T01:53:43;7.45;;;6.82;;
20567;SDS011;10442;49.932;11.592;2022-07-23T01:56:10;7.70;;;7.00;;
20567;SDS011;10442;49.932;11.592;2022-07-23T01:58:38;7.30;;;6.80;;
20567;SDS011;10442;49.932;11.592;2022-07-23T02:01:06;7.88;;;7.15;;
20567;SDS011;10442;49.932;11.592;2022-07-23T02:03:34;8.45;;;7.70;;
20567;SDS011;10442;49.932;11.592;2022-07-23T02:06:01;7.93;;;7.32;;
20567;SDS011;10442;49.932;11.592;2022-07-23T02:08:29;8.45;;;7.85;;
20567;SDS011;10442;49.932;11.592;2022-07-23T02:10:57;8.88;;;8.07;;
20567;SDS011;10442;49.932;11.592;2022-07-23T02:13:24;14.18;;;7.75;;
20567;SDS011;10442;49.932;11.592;2022-07-23T02:15:56;9.07;;;8.18;;
20567;SDS011;10442;49.932;11.592;2022-07-23T02:18:24;7.93;;;7.13;;
20567;SDS011;10442;49.932;11.592;2022-07-23T02:20:51;10.10;;;7.18;;
20567;SDS011;10442;49.932;11.592;2022-07-23T02:23:19;8.65;;;7.78;;
20567;SDS011;10442;49.932;11.592;2022-07-23T02:25:46;8.18;;;7.55;;
20567;SDS011;10442;49.932;11.592;2022-07-23T02:28:15;8.73;;;8.02;;
20567;SDS011;10442;49.932;11.592;2022-07-23T02:30:42;8.13;;;7.53;;
20567;SDS011;10442;49.932;11.592;2022-07-23T02:33:10;12.38;;;8.90;;
20567;SDS011;10442;49.932;11.592;2022-07-23T02:35:39;8.80;;;8.05;;
20567;SDS011;10442;49.932;11.592;2022-07-23T02:38:07;7.25;;;6.75;;
20567;SDS011;10442;49.932;11.592;2022-07-23T02:40:35;10.57;;;7.07;;
20567;SDS011;10442;49.932;11.592;2022-07-23T02:43:03;7.88;;;7.28;;
20567;SDS011;10442;49.932;11.592;2022-07-23T02:45:30;7.85;;;7.15;;
20567;SDS011;10442;49.932;11.592;2022-07-23T02:47:58;8.00;;;7.30;;
20567;SDS011;10442;49.932;11.592;2022-07-23T02:50:26;7.15;;;6.55;;
20567;SDS011;10442;49.932;11.592;2022-07-23T02:52:56;7.63;;;6.97;;
20567;SDS011;10442;49.932;11.592;2022-07-23T02:55:24;9.00;;;8.30;;
20567;SDS011;10442;49.932;11.592;2022-07-23T02:57:52;7.68;;;6.97;;
20567;SDS011;10442;49.932;11.592;2022-07-23T03:00:20;8.40;;;7.40;;
20567;SDS011;10442;49.932;11.592;2022-07-23T03:02:48;7.78;;;7.18;;
20567;SDS011;10442;49.932;11.592;2022-07-23T03:05:15;7.53;;;7.03;;
20567;SDS011;10442;49.932;11.592;2022-07-23T03:07:43;9.70;;;8.10;;
20567;SDS011;10442;49.932;11.592;2022-07-23T03:10:11;8.30;;;7.63;;
20567;SDS011;10442;49.932;11.592;2022-07-23T03:12:38;8.55;;;7.75;;
20567;SDS011;10442;49.932;11.592;2022-07-23T03:15:06;7.35;;;6.85;;
20567;SDS011;10442;49.932;11.592;2022-07-23T03:17:34;7.63;;;6.82;;
20567;SDS011;10442;49.932;11.592;2022-07-23T03:20:02;21.23;;;7.85;;
20567;SDS011;10442;49.932;11.592;2022-07-23T03:22:30;7.22;;;6.68;;
20567;SDS011;10442;49.932;11.592;2022-07-23T03:24:57;7.90;;;7.10;;
20567;SDS011;10442;49.932;11.592;2022-07-23T03:27:33;7.03;;;6.40;;
20567;SDS011;10442;49.932;11.592;2022-07-23T03:30:00;7.60;;;6.95;;
20567;SDS011;10442;49.932;11.592;2022-07-23T03:32:28;11.75;;;7.15;;
20567;SDS011;10442;49.932;11.592;2022-07-23T03:34:56;6.88;;;5.88;;
20567;SDS011;10442;49.932;11.592;2022-07-23T03:37:23;6.30;;;5.80;;
20567;SDS011;10442;49.932;11.592;2022-07-23T03:39:51;6.47;;;5.88;;
20567;SDS011;10442;49.932;11.592;2022-07-23T03:42:19;6.40;;;5.90;;
20567;SDS011;10442;49.932;11.592;2022-07-23T03:44:47;6.72;;;6.13;;
20567;SDS011;10442;49.932;11.592;2022-07-23T03:47:15;5.85;;;5.45;;
20567;SDS011;10442;49.932;11.592;2022-07-23T03:49:44;9.88;;;6.18;;
20567;SDS011;10442;49.932;11.592;2022-07-23T03:52:11;7.03;;;6.50;;
20567;SDS011;10442;49.932;11.592;2022-07-23T03:54:39;6.13;;;5.72;;
20567;SDS011;10442;49.932;11.592;2022-07-23T03:57:07;6.25;;;5.75;;
20567;SDS011;10442;49.932;11.592;2022-07-23T03:59:34;6.38;;;5.78;;
20567;SDS011;10442;49.932;11.592;2022-07-23T04:02:02;6.15;;;5.75;;
20567;SDS011;10442;49.932;11.592;2022-07-23T04:04:30;6.70;;;6.15;;
20567;SDS011;10442;49.932;11.592;2022-07-23T04:06:58;7.18;;;6.47;;
20567;SDS011;10442;49.932;11.592;2022-07-23T04:09:26;6.45;;;5.88;;
20567;SDS011;10442;49.932;11.592;2022-07-23T04:11:54;7.00;;;6.25;;
20567;SDS011;10442;49.932;11.592;2022-07-23T04:14:21;6.80;;;6.13;;
20567;SDS011;10442;49.932;11.592;2022-07-23T04:16:49;5.80;;;5.30;;
20567;SDS011;10442;49.932;11.592;2022-07-23T04:19:18;6.40;;;5.90;;
20567;SDS011;10442;49.932;11.592;2022-07-23T04:21:57;6.40;;;5.80;;
20567;SDS011;10442;49.932;11.592;2022-07-23T04:24:26;6.10;;;5.60;;
20567;SDS011;10442;49.932;11.592;2022-07-23T04:26:53;7.05;;;6.25;;
20567;SDS011;10442;49.932;11.592;2022-07-23T04:29:21;7.07;;;6.22;;
20567;SDS011;10442;49.932;11.592;2022-07-23T04:31:48;6.90;;;6.40;;
20567;SDS011;10442;49.932;11.592;2022-07-23T04:34:17;5.35;;;4.95;;
20567;SDS011;10442;49.932;11.592;2022-07-23T04:36:45;6.97;;;6.35;;
20567;SDS011;10442;49.932;11.592;2022-07-23T04:39:13;6.90;;;5.45;;
20567;SDS011;10442;49.932;11.592;2022-07-23T04:41:41;6.45;;;5.95;;
20567;SDS011;10442;49.932;11.592;2022-07-23T04:44:09;6.88;;;6.38;;
20567;SDS011;10442;49.932;11.592;2022-07-23T04:46:37;6.55;;;6.00;;
20567;SDS011;10442;49.932;11.592;2022-07-23T04:49:06;6.45;;;5.95;;
20567;SDS011;10442;49.932;11.592;2022-07-23T04:51:34;5.38;;;4.97;;
20567;SDS011;10442;49.932;11.592;2022-07-23T04:54:02;5.97;;;5.47;;
20567;SDS011;10442;49.932;11.592;2022-07-23T04:56:30;7.13;;;6.43;;
20567;SDS011;10442;49.932;11.592;2022-07-23T04:58:58;6.75;;;6.15;;
20567;SDS011;10442;49.932;11.592;2022-07-23T05:01:26;6.03;;;5.53;;
20567;SDS011;10442;49.932;11.592;2022-07-23T05:03:54;6.88;;;6.28;;
20567;SDS011;10442;49.932;11.592;2022-07-23T05:06:23;7.55;;;6.95;;
20567;SDS011;10442;49.932;11.592;2022-07-23T05:08:51;6.95;;;6.25;;
20567;SDS011;10442;49.932;11.592;2022-07-23T05:11:19;8.77;;;7.45;;
20567;SDS011;10442;49.932;11.592;2022-07-23T05:13:53;6.97;;;6.45;;
20567;SDS011;10442;49.932;11.592;2022-07-23T05:16:20;6.60;;;6.00;;
20567;SDS011;10442;49.932;11.592;2022-07-23T05:18:49;6.63;;;6.03;;
20567;SDS011;10442;49.932;11.592;2022-07-23T05:21:16;8.18;;;6.22;;
20567;SDS011;10442;49.932;11.592;2022-07-23T05:23:44;6.65;;;6.15;;
20567;SDS011;10442;49.932;11.592;2022-07-23T05:26:12;9.25;;;5.60;;
20567;SDS011;10442;49.932;11.592;2022-07-23T05:28:40;6.05;;;5.55;;
20567;SDS011;10442;49.932;11.592;2022-07-23T05:31:15;7.40;;;6.70;;
20567;SDS011;10442;49.932;11.592;2022-07-23T05:33:43;6.70;;;6.10;;
20567;SDS011;10442;49.932;11.592;2022-07-23T05:36:11;6.20;;;5.45;;
20567;SDS011;10442;49.932;11.592;2022-07-23T05:38:44;9.70;;;6.43;;
20567;SDS011;10442;49.932;11.592;2022-07-23T05:41:12;6.57;;;5.97;;
20567;SDS011;10442;49.932;11.592;2022-07-23T05:43:39;6.25;;;5.70;;
20567;SDS011;10442;49.932;11.592;2022-07-23T05:46:10;6.38;;;5.95;;
20567;SDS011;10442;49.932;11.592;2022-07-23T05:48:41;6.15;;;5.43;;
20567;SDS011;10442;49.932;11.592;2022-07-23T05:51:26;8.70;;;6.07;;
20567;SDS011;10442;49.932;11.592;2022-07-23T05:53:54;5.65;;;5.25;;
20567;SDS011;10442;49.932;11.592;2022-07-23T05:56:27;25.58;;;6.63;;
20567;SDS011;10442;49.932;11.592;2022-07-23T05:58:54;5.80;;;5.40;;
20567;SDS011;10442;49.932;11.592;2022-07-23T06:01:22;6.10;;;5.68;;
20567;SDS011;10442;49.932;11.592;2022-07-23T06:04:10;4.95;;;4.55;;
20567;SDS011;10442;49.932;11.592;2022-07-23T06:06:43;6.43;;;5.43;;
20567;SDS011;10442;49.932;11.592;2022-07-23T06:09:11;5.78;;;5.28;;
20567;SDS011;10442;49.932;11.592;2022-07-23T06:11:41;6.32;;;5.82;;
20567;SDS011;10442;49.932;11.592;2022-07-23T06:14:08;7.20;;;4.80;;
20567;SDS011;10442;49.932;11.592;2022-07-23T06:16:46;5.82;;;5.32;;
20567;SDS011;10442;49.932;11.592;2022-07-23T06:19:14;5.18;;;4.82;;
20567;SDS011;10442;49.932;11.592;2022-07-23T06:21:43;4.55;;;4.25;;
20567;SDS011;10442;49.932;11.592;2022-07-23T06:24:14;5.10;;;4.70;;
20567;SDS011;10442;49.932;11.592;2022-07-23T06:26:42;4.78;;;4.38;;
20567;SDS011;10442;49.932;11.592;2022-07-23T06:29:09;7.95;;;4.28;;
20567;SDS011;10442;49.932;11.592;2022-07-23T06:31:37;4.47;;;4.07;;
20567;SDS011;10442;49.932;11.592;2022-07-23T06:34:04;3.72;;;3.53;;
20567;SDS011;10442;49.932;11.592;2022-07-23T06:36:34;5.82;;;4.32;;
20567;SDS011;10442;49.932;11.592;2022-07-23T06:39:02;4.22;;;3.92;;
20567;SDS011;10442;49.932;11.592;2022-07-23T06:41:31;4.32;;;4.13;;
20567;SDS011;10442;49.932;11.592;2022-07-23T06:44:00;5.68;;;5.18;;
20567;SDS011;10442;49.932;11.592;2022-07-23T06:46:30;6.55;;;4.97;;
20567;SDS011;10442;49.932;11.592;2022-07-23T06:48:57;4.75;;;4.45;;
20567;SDS011;10442;49.932;11.592;2022-07-23T06:51:28;4.93;;;4.53;;
20567;SDS011;10442;49.932;11.592;2022-07-23T06:53:56;5.97;;;4.43;;
20567;SDS011;10442;49.932;11.592;2022-07-23T06:56:23;4.93;;;4.53;;
20567;SDS011;10442;49.932;11.592;2022-07-23T06:58:51;4.78;;;4.38;;
20567;SDS011;10442;49.932;11.592;2022-07-23T07:01:18;5.07;;;4.65;;
20567;SDS011;10442;49.932;11.592;2022-07-23T07:03:46;5.55;;;5.20;;
20567;SDS011;10442;49.932;11.592;2022-07-23T07:06:14;4.57;;;4.28;;
20567;SDS011;10442;49.932;11.592;2022-07-23T07:08:42;4.80;;;4.45;;
20567;SDS011;10442;49.932;11.592;2022-07-23T07:11:11;5.57;;;5.03;;
20567;SDS011;10442;49.932;11.592;2022-07-23T07:13:38;5.07;;;4.57;;
20567;SDS011;10442;49.932;11.592;2022-07-23T07:16:06;4.63;;;4.22;;
20567;SDS011;10442;49.932;11.592;2022-07-23T07:18:34;5.75;;;4.88;;
20567;SDS011;10442;49.932;11.592;2022-07-23T07:21:02;4.45;;;4.15;;
20567;SDS011;10442;49.932;11.592;2022-07-23T07:23:29;4.90;;;4.47;;
20567;SDS011;10442;49.932;11.592;2022-07-23T07:25:57;6.40;;;5.90;;
20567;SDS011;10442;49.932;11.592;2022-07-23T07:28:24;5.65;;;5.10;;
20567;SDS011;10442;49.932;11.592;2022-07-23T07:30:52;4.82;;;4.53;;
20567;SDS011;10442;49.932;11.592;2022-07-23T07:33:20;6.00;;;4.78;;
20567;SDS011;10442;49.932;11.592;2022-07-23T07:35:47;5.60;;;5.20;;
20567;SDS011;10442;49.932;11.592;2022-07-23T07:38:15;4.32;;;4.00;;
20567;SDS011;10442;49.932;11.592;2022-07-23T07:40:42;5.90;;;4.88;;
20567;SDS011;10442;49.932;11.592;2022-07-23T07:43:10;5.00;;;4.60;;
20567;SDS011;10442;49.932;11.592;2022-07-23T07:45:37;4.75;;;4.35;;
20567;SDS011;10442;49.932;11.592;2022-07-23T07:48:05;5.85;;;4.07;;
20567;SDS011;10442;49.932;11.592;2022-07-23T07:50:33;4.90;;;4.40;;
20567;SDS011;10442;49.932;11.592;2022-07-23T07:53:00;5.50;;;5.20;;
20567;SDS011;10442;49.932;11.592;2022-07-23T07:55:28;5.80;;;5.38;;
20567;SDS011;10442;49.932;11.592;2022-07-23T07:57:56;5.45;;;5.05;;
20567;SDS011;10442;49.932;11.592;2022-07-23T08:00:23;5.53;;;5.00;;
20567;SDS011;10442;49.932;11.592;2022-07-23T08:02:52;5.80;;;4.72;;
20567;SDS011;10442;49.932;11.592;2022-07-23T08:05:22;6.10;;;5.70;;
20567;SDS011;10442;49.932;11.592;2022-07-23T08:07:55;5.75;;;5.25;;
20567;SDS011;10442;49.932;11.592;2022-07-23T08:10:24;9.98;;;6.43;;
20567;SDS011;10442;49.932;11.592;2022-07-23T08:12:54;5.28;;;4.75;;
20567;SDS011;10442;49.932;11.592;2022-07-23T08:15:28;5.55;;;5.15;;
20567;SDS011;10442;49.932;11.592;2022-07-23T08:17:57;5.40;;;5.03;;
20567;SDS011;10442;49.932;11.592;2022-07-23T08:20:25;7.95;;;5.65;;
20567;SDS011;10442;49.932;11.592;2022-07-23T08:22:59;5.88;;;5.38;;
20567;SDS011;10442;49.932;11.592;2022-07-23T08:25:36;4.68;;;4.38;;
20567;SDS011;10442;49.932;11.592;2022-07-23T08:28:09;6.90;;;4.70;;
20567;SDS011;10442;49.932;11.592;2022-07-23T08:30:37;4.85;;;4.55;;
20567;SDS011;10442;49.932;11.592;2022-07-23T08:33:08;6.10;;;5.50;;
20567;SDS011;10442;49.932;11.592;2022-07-23T08:36:00;4.88;;;4.57;;
20567;SDS011;10442;49.932;11.592;2022-07-23T08:38:31;4.95;;;4.47;;
20567;SDS011;10442;49.932;11.592;2022-07-23T08:40:59;5.22;;;4.85;;
20567;SDS011;10442;49.932;11.592;2022-07-23T08:43:30;5.53;;;4.57;;
20567;SDS011;10442;49.932;11.592;2022-07-23T08:45:59;5.25;;;4.75;;
20567;SDS011;10442;49.932;11.592;2022-07-23T08:48:33;5.80;;;5.25;;
20567;SDS011;10442;49.932;11.592;2022-07-23T08:51:02;6.00;;;4.72;;
20567;SDS011;10442;49.932;11.592;2022-07-23T08:53:33;7.75;;;4.90;;
20567;SDS011;10442;49.932;11.592;2022-07-23T08:56:02;4.80;;;4.43;;
20567;SDS011;10442;49.932;11.592;2022-07-23T08:58:34;5.30;;;4.90;;
20567;SDS011;10442;49.932;11.592;2022-07-23T09:01:01;5.55;;;5.05;;
20567;SDS011;10442;49.932;11.592;2022-07-23T09:03:30;4.93;;;4.53;;
20567;SDS011;10442;49.932;11.592;2022-07-23T09:05:59;5.45;;;5.03;;
20567;SDS011;10442;49.932;11.592;2022-07-23T09:08:38;5.90;;;5.43;;
20567;SDS011;10442;49.932;11.592;2022-07-23T09:11:11;7.05;;;5.60;;
20567;SDS011;10442;49.932;11.592;2022-07-23T09:13:40;6.15;;;5.43;;
20567;SDS011;10442;49.932;11.592;2022-07-23T09:21:15;5.47;;;5.07;;
20567;SDS011;10442;49.932;11.592;2022-07-23T09:26:40;5.68;;;5.20;;
20567;SDS011;10442;49.932;11.592;2022-07-23T09:29:24;5.70;;;5.18;;
20567;SDS011;10442;49.932;11.592;2022-07-23T09:31:56;5.07;;;4.68;;
20567;SDS011;10442;49.932;11.592;2022-07-23T09:34:26;4.63;;;4.32;;
20567;SDS011;10442;49.932;11.592;2022-07-23T09:37:15;5.63;;;5.07;;
20567;SDS011;10442;49.932;11.592;2022-07-23T09:39:44;6.57;;;4.95;;
20567;SDS011;10442;49.932;11.592;2022-07-23T09:42:15;5.60;;;4.82;;
20567;SDS011;10442;49.932;11.592;2022-07-23T09:44:47;5.78;;;5.30;;
20567;SDS011;10442;49.932;11.592;2022-07-23T09:47:16;5.43;;;4.80;;
20567;SDS011;10442;49.932;11.592;2022-07-23T09:52:28;5.63;;;5.13;;
20567;SDS011;10442;49.932;11.592;2022-07-23T09:55:03;5.82;;;5.43;;
20567;SDS011;10442;49.932;11.592;2022-07-23T09:57:32;5.15;;;4.85;;
20567;SDS011;10442;49.932;11.592;2022-07-23T10:00:00;6.88;;;6.07;;
20567;SDS011;10442;49.932;11.592;2022-07-23T10:02:32;6.85;;;5.18;;
20567;SDS011;10442;49.932;11.592;2022-07-23T10:05:19;6.03;;;5.57;;
20567;SDS011;10442;49.932;11.592;2022-07-23T10:08:11;6.72;;;5.07;;
20567;SDS011;10442;49.932;11.592;2022-07-23T10:10:58;5.32;;;5.03;;
20567;SDS011;10442;49.932;11.592;2022-07-23T10:13:49;5.00;;;4.60;;
20567;SDS011;10442;49.932;11.592;2022-07-23T10:16:24;5.55;;;5.03;;
20567;SDS011;10442;49.932;11.592;2022-07-23T10:18:53;5.82;;;5.30;;
20567;SDS011;10442;49.932;11.592;2022-07-23T10:21:24;4.82;;;4.50;;
20567;SDS011;10442;49.932;11.592;2022-07-23T10:24:00;5.13;;;4.82;;
20567;SDS011;10442;49.932;11.592;2022-07-23T10:27:04;5.40;;;5.00;;
20567;SDS011;10442;49.932;11.592;2022-07-23T10:29:55;8.82;;;5.65;;
20567;SDS011;10442;49.932;11.592;2022-07-23T10:35:24;5.05;;;4.63;;
20567;SDS011;10442;49.932;11.592;2022-07-23T10:38:07;5.63;;;4.97;;
20567;SDS011;10442;49.932;11.592;2022-07-23T10:40:54;6.68;;;5.22;;
20567;SDS011;10442;49.932;11.592;2022-07-23T10:43:23;5.63;;;5.13;;
20567;SDS011;10442;49.932;11.592;2022-07-23T10:45:50;5.43;;;5.13;;
20567;SDS011;10442;49.932;11.592;2022-07-23T10:48:20;4.78;;;4.47;;
20567;SDS011;10442;49.932;11.592;2022-07-23T10:51:06;6.43;;;4.50;;
20567;SDS011;10442;49.932;11.592;2022-07-23T10:54:09;5.30;;;4.80;;
20567;SDS011;10442;49.932;11.592;2022-07-23T10:59:25;5.53;;;4.75;;
20567;SDS011;10442;49.932;11.592;2022-07-23T11:01:52;5.32;;;4.82;;
20567;SDS011;10442;49.932;11.592;2022-07-23T11:04:20;5.07;;;4.57;;
20567;SDS011;10442;49.932;11.592;2022-07-23T11:07:18;5.43;;;5.07;;
20567;SDS011;10442;49.932;11.592;2022-07-23T11:09:48;5.80;;;5.35;;
20567;SDS011;10442;49.932;11.592;2022-07-23T11:18:00;6.45;;;5.15;;
20567;SDS011;10442;49.932;11.592;2022-07-23T11:20:27;5.80;;;5.30;;
20567;SDS011;10442;49.932;11.592;2022-07-23T11:22:56;5.28;;;4.95;;
20567;SDS011;10442;49.932;11.592;2022-07-23T11:27:55;6.82;;;6.30;;
20567;SDS011;10442;49.932;11.592;2022-07-23T11:30:45;5.65;;;5.25;;
20567;SDS011;10442;49.932;11.592;2022-07-23T11:35:43;6.43;;;4.60;;
20567;SDS011;10442;49.932;11.592;2022-07-23T11:38:18;6.30;;;5.80;;
20567;SDS011;10442;49.932;11.592;2022-07-23T11:40:53;5.18;;;4.78;;
20567;SDS011;10442;49.932;11.592;2022-07-23T11:43:21;6.78;;;6.28;;
20567;SDS011;10442;49.932;11.592;2022-07-23T11:45:51;5.85;;;5.35;;
20567;SDS011;10442;49.932;11.592;2022-07-23T11:48:21;6.55;;;6.05;;
20567;SDS011;10442;49.932;11.592;2022-07-23T11:50:53;5.53;;;5.13;;
20567;SDS011;10442;49.932;11.592;2022-07-23T11:53:23;6.55;;;6.05;;
20567;SDS011;10442;49.932;11.592;2022-07-23T11:56:02;6.53;;;5.00;;
20567;SDS011;10442;49.932;11.592;2022-07-23T11:58:37;5.93;;;5.53;;
20567;SDS011;10442;49.932;11.592;2022-07-23T12:01:06;5.82;;;5.43;;
20567;SDS011;10442;49.932;11.592;2022-07-23T12:03:52;6.07;;;5.53;;
20567;SDS011;10442;49.932;11.592;2022-07-23T12:06:19;5.78;;;5.38;;
20567;SDS011;10442;49.932;11.592;2022-07-23T12:08:47;5.93;;;5.53;;
20567;SDS011;10442;49.932;11.592;2022-07-23T12:11:15;6.25;;;5.82;;
20567;SDS011;10442;49.932;11.592;2022-07-23T12:13:42;6.47;;;5.88;;
20567;SDS011;10442;49.932;11.592;2022-07-23T12:16:10;6.05;;;5.60;;
20567;SDS011;10442;49.932;11.592;2022-07-23T12:18:38;6.78;;;5.75;;
20567;SDS011;10442;49.932;11.592;2022-07-23T12:21:05;12.95;;;5.95;;
20567;SDS011;10442;49.932;11.592;2022-07-23T12:23:34;5.55;;;5.15;;
20567;SDS011;10442;49.932;11.592;2022-07-23T12:26:04;5.47;;;5.15;;
20567;SDS011;10442;49.932;11.592;2022-07-23T12:28:34;6.75;;;5.85;;
20567;SDS011;10442;49.932;11.592;2022-07-23T12:31:04;6.30;;;5.90;;
20567;SDS011;10442;49.932;11.592;2022-07-23T12:33:33;5.47;;;5.03;;
20567;SDS011;10442;49.932;11.592;2022-07-23T12:36:06;6.85;;;5.63;;
20567;SDS011;10442;49.932;11.592;2022-07-23T12:38:57;5.40;;;5.00;;
20567;SDS011;10442;49.932;11.592;2022-07-23T12:41:23;5.63;;;5.18;;
20567;SDS011;10442;49.932;11.592;2022-07-23T12:43:50;6.00;;;5.60;;
20567;SDS011;10442;49.932;11.592;2022-07-23T12:46:19;6.55;;;6.05;;
20567;SDS011;10442;49.932;11.592;2022-07-23T12:51:22;5.72;;;5.32;;
20567;SDS011;10442;49.932;11.592;2022-07-23T12:53:56;6.28;;;5.88;;
20567;SDS011;10442;49.932;11.592;2022-07-23T12:58:58;7.90;;;5.28;;
20567;SDS011;10442;49.932;11.592;2022-07-23T13:01:41;6.53;;;5.95;;
20567;SDS011;10442;49.932;11.592;2022-07-23T13:04:22;6.35;;;5.68;;
20567;SDS011;10442;49.932;11.592;2022-07-23T13:06:56;5.85;;;5.45;;
20567;SDS011;10442;49.932;11.592;2022-07-23T13:09:26;5.03;;;4.72;;
20567;SDS011;10442;49.932;11.592;2022-07-23T13:12:15;7.18;;;6.13;;
20567;SDS011;10442;49.932;11.592;2022-07-23T13:14:42;5.70;;;5.30;;
20567;SDS011;10442;49.932;11.592;2022-07-23T13:17:09;4.95;;;4.65;;
20567;SDS011;10442;49.932;11.592;2022-07-23T13:19:37;6.20;;;5.70;;
20567;SDS011;10442;49.932;11.592;2022-07-23T13:22:04;5.93;;;5.43;;
20567;SDS011;10442;49.932;11.592;2022-07-23T13:24:36;6.03;;;5.43;;
20567;SDS011;10442;49.932;11.592;2022-07-23T13:27:06;5.88;;;5.38;;
20567;SDS011;10442;49.932;11.592;2022-07-23T13:29:39;6.13;;;5.53;;
20567;SDS011;10442;49.932;11.592;2022-07-23T13:32:08;6.07;;;5.55;;
20567;SDS011;10442;49.932;11.592;2022-07-23T13:34:39;5.18;;;4.78;;
20567;SDS011;10442;49.932;11.592;2022-07-23T13:37:08;5.72;;;5.22;;
20567;SDS011;10442;49.932;11.592;2022-07-23T13:39:36;9.52;;;5.65;;
20567;SDS011;10442;49.932;11.592;2022-07-23T13:42:05;5.38;;;4.97;;
20567;SDS011;10442;49.932;11.592;2022-07-23T13:44:34;4.72;;;4.32;;
20567;SDS011;10442;49.932;11.592;2022-07-23T13:47:02;6.00;;;5.32;;
20567;SDS011;10442;49.932;11.592;2022-07-23T13:49:31;5.03;;;4.60;;
20567;SDS011;10442;49.932;11.592;2022-07-23T13:52:02;4.88;;;4.43;;
20567;SDS011;10442;49.932;11.592;2022-07-23T13:54:34;5.35;;;4.30;;
20567;SDS011;10442;49.932;11.592;2022-07-23T13:57:02;5.32;;;4.88;;
20567;SDS011;10442;49.932;11.592;2022-07-23T13:59:31;8.40;;;4.63;;
20567;SDS011;10442;49.932;11.592;2022-07-23T14:01:59;5.38;;;4.97;;
20567;SDS011;10442;49.932;11.592;2022-07-23T14:04:47;5.60;;;5.20;;
20567;SDS011;10442;49.932;11.592;2022-07-23T14:07:16;5.05;;;3.97;;
20567;SDS011;10442;49.932;11.592;2022-07-23T14:09:46;5.80;;;4.60;;
20567;SDS011;10442;49.932;11.592;2022-07-23T14:12:13;4.93;;;4.55;;
20567;SDS011;10442;49.932;11.592;2022-07-23T14:14:44;4.97;;;4.55;;
20567;SDS011;10442;49.932;11.592;2022-07-23T14:17:11;5.40;;;4.63;;
20567;SDS011;10442;49.932;11.592;2022-07-23T14:19:39;4.70;;;4.40;;
20567;SDS011;10442;49.932;11.592;2022-07-23T14:22:08;5.03;;;4.65;;
20567;SDS011;10442;49.932;11.592;2022-07-23T14:24:36;5.78;;;5.25;;
20567;SDS011;10442;49.932;11.592;2022-07-23T14:27:04;6.07;;;5.07;;
20567;SDS011;10442;49.932;11.592;2022-07-23T14:29:31;6.32;;;3.90;;
20567;SDS011;10442;49.932;11.592;2022-07-23T14:32:01;5.55;;;4.53;;
20567;SDS011;10442;49.932;11.592;2022-07-23T14:34:30;5.53;;;5.03;;
20567;SDS011;10442;49.932;11.592;2022-07-23T14:36:58;4.88;;;4.47;;
20567;SDS011;10442;49.932;11.592;2022-07-23T14:39:28;4.85;;;4.45;;
20567;SDS011;10442;49.932;11.592;2022-07-23T14:41:56;4.63;;;4.32;;
20567;SDS011;10442;49.932;11.592;2022-07-23T14:44:24;4.55;;;4.07;;
20567;SDS011;10442;49.932;11.592;2022-07-23T14:46:51;4.57;;;4.28;;
20567;SDS011;10442;49.932;11.592;2022-07-23T14:49:20;5.50;;;5.00;;
20567;SDS011;10442;49.932;11.592;2022-07-23T14:51:48;6.18;;;4.13;;
20567;SDS011;10442;49.932;11.592;2022-07-23T14:54:16;6.13;;;4.25;;
20567;SDS011;10442;49.932;11.592;2022-07-23T14:56:45;4.70;;;4.30;;
20567;SDS011;10442;49.932;11.592;2022-07-23T14:59:13;4.18;;;3.88;;
20567;SDS011;10442;49.932;11.592;2022-07-23T15:01:41;4.25;;;3.95;;
20567;SDS011;10442;49.932;11.592;2022-07-23T15:04:08;4.70;;;4.30;;
20567;SDS011;10442;49.932;11.592;2022-07-23T15:06:56;4.10;;;3.80;;
20567;SDS011;10442;49.932;11.592;2022-07-23T15:09:23;5.03;;;4.53;;
20567;SDS011;10442;49.932;11.592;2022-07-23T15:11:51;6.72;;;5.00;;
20567;SDS011;10442;49.932;11.592;2022-07-23T15:14:19;5.32;;;4.93;;
20567;SDS011;10442;49.932;11.592;2022-07-23T15:16:56;5.95;;;4.82;;
20567;SDS011;10442;49.932;11.592;2022-07-23T15:19:24;5.22;;;4.25;;
20567;SDS011;10442;49.932;11.592;2022-07-23T15:21:51;4.07;;;3.67;;
20567;SDS011;10442;49.932;11.592;2022-07-23T15:24:19;4.53;;;4.13;;